sensor_id;sensor_type;location;lat;lon;timestamp;temperature;humidity
38241;DHT22;24037;49.536;8.500;2023-04-12T00:00:05;9.80;99.90
38241;DHT22;24037;49.536;8.500;2023-04-12T00:02:35;9.80;99.90
38241;DHT22;24037;49.536;8.500;2023-04-12T00:05:02;9.80;99.90
38241;DHT22;24037;49.536;8.500;2023-04-12T00:07:28;9.80;99.90
38241;DHT22;24037;49.536;8.500;2023-04-12T00:09:55;9.80;99.90
38241;DHT22;24037;49.536;8.500;2023-04-12T00:12:21;9.80;99.90
38241;DHT22;24037;49.536;8.500;2023-04-12T00:14:47;9.80;99.90
38241;DHT22;24037;49.536;8.500;2023-04-12T00:17:13;9.90;99.90
38241;DHT22;24037;49.536;8.500;2023-04-12T00:19:39;9.90;99.90
38241;DHT22;24037;49.536;8.500;2023-04-12T00:22:10;9.70;99.90
38241;DHT22;24037;49.536;8.500;2023-04-12T00:24:38;9.70;99.90
38241;DHT22;24037;49.536;8.500;2023-04-12T00:27:04;9.50;99.90
38241;DHT22;24037;49.536;8.500;2023-04-12T00:29:31;9.50;99.90
38241;DHT22;24037;49.536;8.500;2023-04-12T00:31:58;9.40;99.90
38241;DHT22;24037;49.536;8.500;2023-04-12T00:34:26;9.30;99.90
38241;DHT22;24037;49.536;8.500;2023-04-12T00:36:53;9.30;99.90
38241;DHT22;24037;49.536;8.500;2023-04-12T00:39:20;9.20;99.90
38241;DHT22;24037;49.536;8.500;2023-04-12T00:41:46;9.20;1.00
38241;DHT22;24037;49.536;8.500;2023-04-12T00:44:13;9.10;1.00
38241;DHT22;24037;49.536;8.500;2023-04-12T00:46:39;9.10;1.00
38241;DHT22;24037;49.536;8.500;2023-04-12T00:49:06;9.10;1.00
38241;DHT22;24037;49.536;8.500;2023-04-12T00:51:33;9.10;1.00
38241;DHT22;24037;49.536;8.500;2023-04-12T00:53:59;9.10;1.00
38241;DHT22;24037;49.536;8.500;2023-04-12T00:56:27;9.10;1.00
38241;DHT22;24037;49.536;8.500;2023-04-12T00:58:55;9.10;1.00
38241;DHT22;24037;49.536;8.500;2023-04-12T01:01:21;9.10;1.00
38241;DHT22;24037;49.536;8.500;2023-04-12T01:03:49;9.10;1.00
38241;DHT22;24037;49.536;8.500;2023-04-12T01:12:15;9.20;1.00
38241;DHT22;24037;49.536;8.500;2023-04-12T01:17:22;9.00;1.00
38241;DHT22;24037;49.536;8.500;2023-04-12T01:19:54;9.00;1.00
38241;DHT22;24037;49.536;8.500;2023-04-12T01:25:39;8.90;1.00
38241;DHT22;24037;49.536;8.500;2023-04-12T01:28:10;8.80;1.00
38241;DHT22;24037;49.536;8.500;2023-04-12T01:30:37;8.70;1.00
38241;DHT22;24037;49.536;8.500;2023-04-12T01:33:05;8.60;1.00
38241;DHT22;24037;49.536;8.500;2023-04-12T01:35:32;8.60;1.00
38241;DHT22;24037;49.536;8.500;2023-04-12T01:37:59;8.50;1.00
38241;DHT22;24037;49.536;8.500;2023-04-12T01:40:27;8.50;1.00
38241;DHT22;24037;49.536;8.500;2023-04-12T01:43:04;8.40;1.00
38241;DHT22;24037;49.536;8.500;2023-04-12T01:45:33;8.30;1.00
38241;DHT22;24037;49.536;8.500;2023-04-12T01:48:00;8.30;1.00
38241;DHT22;24037;49.536;8.500;2023-04-12T01:53:19;8.30;1.00
38241;DHT22;24037;49.536;8.500;2023-04-12T01:55:48;8.20;1.00
38241;DHT22;24037;49.536;8.500;2023-04-12T01:58:19;8.10;1.00
38241;DHT22;24037;49.536;8.500;2023-04-12T02:00:48;7.90;1.00
38241;DHT22;24037;49.536;8.500;2023-04-12T02:03:15;7.80;11.30
38241;DHT22;24037;49.536;8.500;2023-04-12T02:05:42;7.80;33.70
38241;DHT22;24037;49.536;8.500;2023-04-12T02:08:09;7.70;38.60
38241;DHT22;24037;49.536;8.500;2023-04-12T02:10:36;7.70;52.60
38241;DHT22;24037;49.536;8.500;2023-04-12T02:13:04;7.70;65.10
38241;DHT22;24037;49.536;8.500;2023-04-12T02:15:31;7.70;87.20
38241;DHT22;24037;49.536;8.500;2023-04-12T02:17:58;7.70;92.30
38241;DHT22;24037;49.536;8.500;2023-04-12T02:20:25;7.70;90.60
38241;DHT22;24037;49.536;8.500;2023-04-12T02:22:52;7.80;94.50
38241;DHT22;24037;49.536;8.500;2023-04-12T02:25:19;7.80;98.60
38241;DHT22;24037;49.536;8.500;2023-04-12T02:27:45;7.80;99.90
38241;DHT22;24037;49.536;8.500;2023-04-12T02:30:12;7.80;99.90
38241;DHT22;24037;49.536;8.500;2023-04-12T02:32:41;7.70;99.90
38241;DHT22;24037;49.536;8.500;2023-04-12T02:35:15;7.70;99.90
38241;DHT22;24037;49.536;8.500;2023-04-12T02:37:50;7.70;99.90
38241;DHT22;24037;49.536;8.500;2023-04-12T02:40:16;7.60;99.90
38241;DHT22;24037;49.536;8.500;2023-04-12T02:42:43;7.70;99.90
38241;DHT22;24037;49.536;8.500;2023-04-12T02:45:11;7.70;99.90
38241;DHT22;24037;49.536;8.500;2023-04-12T02:47:39;7.70;99.90
38241;DHT22;24037;49.536;8.500;2023-04-12T02:50:08;7.60;99.90
38241;DHT22;24037;49.536;8.500;2023-04-12T02:52:44;7.60;99.90
38241;DHT22;24037;49.536;8.500;2023-04-12T02:55:11;7.60;99.90
38241;DHT22;24037;49.536;8.500;2023-04-12T02:57:38;7.60;99.90
38241;DHT22;24037;49.536;8.500;2023-04-12T03:00:06;7.50;99.90
38241;DHT22;24037;49.536;8.500;2023-04-12T03:02:50;7.50;99.90
38241;DHT22;24037;49.536;8.500;2023-04-12T03:05:21;7.60;99.90
38241;DHT22;24037;49.536;8.500;2023-04-12T03:07:47;7.50;99.90
38241;DHT22;24037;49.536;8.500;2023-04-12T03:10:17;7.50;99.90
38241;DHT22;24037;49.536;8.500;2023-04-12T03:12:50;7.50;99.90
38241;DHT22;24037;49.536;8.500;2023-04-12T03:15:18;7.50;99.90
38241;DHT22;24037;49.536;8.500;2023-04-12T03:17:47;7.50;99.90
38241;DHT22;24037;49.536;8.500;2023-04-12T03:20:15;7.60;99.90
38241;DHT22;24037;49.536;8.500;2023-04-12T03:22:48;7.50;99.90
38241;DHT22;24037;49.536;8.500;2023-04-12T03:25:14;7.50;99.90
38241;DHT22;24037;49.536;8.500;2023-04-12T03:27:48;7.50;99.90
38241;DHT22;24037;49.536;8.500;2023-04-12T03:30:18;7.50;99.90
38241;DHT22;24037;49.536;8.500;2023-04-12T03:32:45;7.50;99.90
38241;DHT22;24037;49.536;8.500;2023-04-12T03:35:12;7.50;99.90
38241;DHT22;24037;49.536;8.500;2023-04-12T03:37:42;7.40;99.90
38241;DHT22;24037;49.536;8.500;2023-04-12T03:40:10;7.40;99.90
38241;DHT22;24037;49.536;8.500;2023-04-12T03:42:38;7.40;99.90
38241;DHT22;24037;49.536;8.500;2023-04-12T03:45:10;7.40;99.90
38241;DHT22;24037;49.536;8.500;2023-04-12T03:47:40;7.40;99.90
38241;DHT22;24037;49.536;8.500;2023-04-12T03:50:07;7.40;99.90
38241;DHT22;24037;49.536;8.500;2023-04-12T03:52:35;7.40;99.90
38241;DHT22;24037;49.536;8.500;2023-04-12T03:55:05;7.40;99.90
38241;DHT22;24037;49.536;8.500;2023-04-12T03:57:32;7.40;99.90
38241;DHT22;24037;49.536;8.500;2023-04-12T03:59:59;7.40;99.90
38241;DHT22;24037;49.536;8.500;2023-04-12T04:02:33;7.40;99.90
38241;DHT22;24037;49.536;8.500;2023-04-12T04:05:00;7.40;99.90
38241;DHT22;24037;49.536;8.500;2023-04-12T04:07:30;7.40;99.90
38241;DHT22;24037;49.536;8.500;2023-04-12T04:09:59;7.40;99.90
38241;DHT22;24037;49.536;8.500;2023-04-12T04:12:31;7.40;99.90
38241;DHT22;24037;49.536;8.500;2023-04-12T04:14:57;7.40;99.90
38241;DHT22;24037;49.536;8.500;2023-04-12T04:17:31;7.40;99.90
38241;DHT22;24037;49.536;8.500;2023-04-12T04:19:57;7.40;99.90
38241;DHT22;24037;49.536;8.500;2023-04-12T04:22:24;7.40;99.90
38241;DHT22;24037;49.536;8.500;2023-04-12T04:24:52;7.40;99.90
38241;DHT22;24037;49.536;8.500;2023-04-12T04:27:19;7.40;99.90
38241;DHT22;24037;49.536;8.500;2023-04-12T04:29:46;7.40;99.90
38241;DHT22;24037;49.536;8.500;2023-04-12T04:32:15;7.40;99.90
38241;DHT22;24037;49.536;8.500;2023-04-12T04:34:43;7.30;99.90
38241;DHT22;24037;49.536;8.500;2023-04-12T04:37:14;7.30;99.90
38241;DHT22;24037;49.536;8.500;2023-04-12T04:39:43;7.40;99.90
38241;DHT22;24037;49.536;8.500;2023-04-12T04:42:10;7.30;99.90
38241;DHT22;24037;49.536;8.500;2023-04-12T04:44:38;7.40;99.90
38241;DHT22;24037;49.536;8.500;2023-04-12T04:47:08;7.30;99.90
38241;DHT22;24037;49.536;8.500;2023-04-12T04:49:37;7.30;99.90
38241;DHT22;24037;49.536;8.500;2023-04-12T04:52:09;7.40;99.90
38241;DHT22;24037;49.536;8.500;2023-04-12T04:54:35;7.30;99.90
38241;DHT22;24037;49.536;8.500;2023-04-12T04:57:02;7.30;99.90
38241;DHT22;24037;49.536;8.500;2023-04-12T04:59:33;7.40;99.90
38241;DHT22;24037;49.536;8.500;2023-04-12T05:02:11;7.30;99.90
38241;DHT22;24037;49.536;8.500;2023-04-12T05:04:37;7.40;99.90
38241;DHT22;24037;49.536;8.500;2023-04-12T05:07:04;7.40;99.90
38241;DHT22;24037;49.536;8.500;2023-04-12T05:09:30;7.40;99.90
38241;DHT22;24037;49.536;8.500;2023-04-12T05:11:57;7.40;99.90
38241;DHT22;24037;49.536;8.500;2023-04-12T05:14:24;7.40;99.90
38241;DHT22;24037;49.536;8.500;2023-04-12T05:16:51;7.30;99.90
38241;DHT22;24037;49.536;8.500;2023-04-12T05:19:18;7.40;99.90
38241;DHT22;24037;49.536;8.500;2023-04-12T05:21:44;7.40;99.90
38241;DHT22;24037;49.536;8.500;2023-04-12T05:24:11;7.40;99.90
38241;DHT22;24037;49.536;8.500;2023-04-12T05:26:38;7.40;99.90
38241;DHT22;24037;49.536;8.500;2023-04-12T05:29:10;7.40;99.90
38241;DHT22;24037;49.536;8.500;2023-04-12T05:31:36;7.40;99.90
38241;DHT22;24037;49.536;8.500;2023-04-12T05:34:06;7.40;99.90
38241;DHT22;24037;49.536;8.500;2023-04-12T05:36:37;7.40;99.90
38241;DHT22;24037;49.536;8.500;2023-04-12T05:39:03;7.40;99.90
38241;DHT22;24037;49.536;8.500;2023-04-12T05:41:31;7.40;99.90
38241;DHT22;24037;49.536;8.500;2023-04-12T05:43:57;7.40;99.90
38241;DHT22;24037;49.536;8.500;2023-04-12T05:46:24;7.40;99.90
38241;DHT22;24037;49.536;8.500;2023-04-12T05:48:50;7.40;99.90
38241;DHT22;24037;49.536;8.500;2023-04-12T05:51:16;7.40;99.90
38241;DHT22;24037;49.536;8.500;2023-04-12T05:53:43;7.50;99.90
38241;DHT22;24037;49.536;8.500;2023-04-12T05:56:11;7.50;99.90
38241;DHT22;24037;49.536;8.500;2023-04-12T05:58:37;7.50;99.90
38241;DHT22;24037;49.536;8.500;2023-04-12T06:01:04;7.50;99.90
38241;DHT22;24037;49.536;8.500;2023-04-12T06:03:31;7.50;99.90
38241;DHT22;24037;49.536;8.500;2023-04-12T06:06:06;7.50;99.90
38241;DHT22;24037;49.536;8.500;2023-04-12T06:08:32;7.60;99.90
38241;DHT22;24037;49.536;8.500;2023-04-12T06:11:00;7.60;99.90
38241;DHT22;24037;49.536;8.500;2023-04-12T06:13:26;7.60;99.90
38241;DHT22;24037;49.536;8.500;2023-04-12T06:15:53;7.60;99.90
38241;DHT22;24037;49.536;8.500;2023-04-12T06:18:20;7.60;99.90
38241;DHT22;24037;49.536;8.500;2023-04-12T06:20:46;7.70;99.90
38241;DHT22;24037;49.536;8.500;2023-04-12T06:23:12;7.70;99.90
38241;DHT22;24037;49.536;8.500;2023-04-12T06:25:38;7.80;99.90
38241;DHT22;24037;49.536;8.500;2023-04-12T06:28:05;7.80;99.90
38241;DHT22;24037;49.536;8.500;2023-04-12T06:30:37;7.80;99.90
38241;DHT22;24037;49.536;8.500;2023-04-12T06:33:03;7.80;99.90
38241;DHT22;24037;49.536;8.500;2023-04-12T06:35:31;7.80;99.90
38241;DHT22;24037;49.536;8.500;2023-04-12T06:37:57;7.90;99.90
38241;DHT22;24037;49.536;8.500;2023-04-12T06:40:23;7.90;99.90
38241;DHT22;24037;49.536;8.500;2023-04-12T06:42:49;8.00;99.90
38241;DHT22;24037;49.536;8.500;2023-04-12T06:45:21;8.00;99.90
38241;DHT22;24037;49.536;8.500;2023-04-12T06:47:47;8.00;99.90
38241;DHT22;24037;49.536;8.500;2023-04-12T06:50:13;8.10;99.90
38241;DHT22;24037;49.536;8.500;2023-04-12T06:52:39;8.10;99.90
38241;DHT22;24037;49.536;8.500;2023-04-12T06:55:06;8.10;99.90
38241;DHT22;24037;49.536;8.500;2023-04-12T06:57:32;8.10;99.90
38241;DHT22;24037;49.536;8.500;2023-04-12T06:59:58;8.10;99.90
38241;DHT22;24037;49.536;8.500;2023-04-12T07:02:25;8.10;99.90
38241;DHT22;24037;49.536;8.500;2023-04-12T07:04:52;8.10;99.90
38241;DHT22;24037;49.536;8.500;2023-04-12T07:07:21;8.20;99.90
38241;DHT22;24037;49.536;8.500;2023-04-12T07:09:47;8.30;99.90
38241;DHT22;24037;49.536;8.500;2023-04-12T07:12:13;8.30;99.90
38241;DHT22;24037;49.536;8.500;2023-04-12T07:14:39;8.30;99.90
38241;DHT22;24037;49.536;8.500;2023-04-12T07:17:06;8.40;99.90
38241;DHT22;24037;49.536;8.500;2023-04-12T07:19:32;8.50;99.90
38241;DHT22;24037;49.536;8.500;2023-04-12T07:21:58;8.50;99.90
38241;DHT22;24037;49.536;8.500;2023-04-12T07:24:24;8.60;99.90
38241;DHT22;24037;49.536;8.500;2023-04-12T07:26:53;8.60;99.90
38241;DHT22;24037;49.536;8.500;2023-04-12T07:29:20;8.60;99.90
38241;DHT22;24037;49.536;8.500;2023-04-12T07:31:46;8.60;99.90
38241;DHT22;24037;49.536;8.500;2023-04-12T07:34:12;8.60;99.90
38241;DHT22;24037;49.536;8.500;2023-04-12T07:36:38;8.60;99.90
38241;DHT22;24037;49.536;8.500;2023-04-12T07:39:04;8.60;99.90
38241;DHT22;24037;49.536;8.500;2023-04-12T07:41:31;8.60;99.90
38241;DHT22;24037;49.536;8.500;2023-04-12T07:43:57;8.70;99.90
38241;DHT22;24037;49.536;8.500;2023-04-12T07:46:23;8.70;99.90
38241;DHT22;24037;49.536;8.500;2023-04-12T07:48:50;8.70;99.90
38241;DHT22;24037;49.536;8.500;2023-04-12T07:51:16;8.80;99.90
38241;DHT22;24037;49.536;8.500;2023-04-12T07:53:42;8.80;99.90
38241;DHT22;24037;49.536;8.500;2023-04-12T07:56:13;8.80;99.90
38241;DHT22;24037;49.536;8.500;2023-04-12T07:58:40;8.90;99.90
38241;DHT22;24037;49.536;8.500;2023-04-12T08:01:06;8.90;99.90
38241;DHT22;24037;49.536;8.500;2023-04-12T08:03:32;8.90;99.90
38241;DHT22;24037;49.536;8.500;2023-04-12T08:05:58;8.90;99.90
38241;DHT22;24037;49.536;8.500;2023-04-12T08:08:24;8.90;99.90
38241;DHT22;24037;49.536;8.500;2023-04-12T08:10:51;8.90;99.90
38241;DHT22;24037;49.536;8.500;2023-04-12T08:13:17;8.90;99.90
38241;DHT22;24037;49.536;8.500;2023-04-12T08:15:44;9.00;99.90
38241;DHT22;24037;49.536;8.500;2023-04-12T08:18:12;9.00;99.90
38241;DHT22;24037;49.536;8.500;2023-04-12T08:20:38;9.10;99.90
38241;DHT22;24037;49.536;8.500;2023-04-12T08:23:10;9.20;99.90
38241;DHT22;24037;49.536;8.500;2023-04-12T08:25:37;9.20;99.90
38241;DHT22;24037;49.536;8.500;2023-04-12T08:28:04;9.40;99.90
38241;DHT22;24037;49.536;8.500;2023-04-12T08:30:32;9.50;99.90
38241;DHT22;24037;49.536;8.500;2023-04-12T08:32:58;9.50;99.90
38241;DHT22;24037;49.536;8.500;2023-04-12T08:35:24;9.50;99.90
38241;DHT22;24037;49.536;8.500;2023-04-12T08:37:51;9.50;99.90
38241;DHT22;24037;49.536;8.500;2023-04-12T08:40:17;9.60;99.90
38241;DHT22;24037;49.536;8.500;2023-04-12T08:42:43;9.60;99.90
38241;DHT22;24037;49.536;8.500;2023-04-12T08:45:10;9.70;99.90
38241;DHT22;24037;49.536;8.500;2023-04-12T08:47:42;9.80;99.90
38241;DHT22;24037;49.536;8.500;2023-04-12T08:50:10;9.80;99.90
38241;DHT22;24037;49.536;8.500;2023-04-12T08:52:39;9.90;99.90
38241;DHT22;24037;49.536;8.500;2023-04-12T08:55:06;9.80;99.90
38241;DHT22;24037;49.536;8.500;2023-04-12T08:57:34;9.80;99.90
38241;DHT22;24037;49.536;8.500;2023-04-12T09:00:02;9.90;99.90
38241;DHT22;24037;49.536;8.500;2023-04-12T09:02:29;10.00;99.90
38241;DHT22;24037;49.536;8.500;2023-04-12T09:04:55;10.10;99.90
38241;DHT22;24037;49.536;8.500;2023-04-12T09:07:22;10.20;99.90
38241;DHT22;24037;49.536;8.500;2023-04-12T09:09:48;10.20;99.90
38241;DHT22;24037;49.536;8.500;2023-04-12T09:12:15;10.10;99.90
38241;DHT22;24037;49.536;8.500;2023-04-12T09:14:42;10.10;99.90
38241;DHT22;24037;49.536;8.500;2023-04-12T09:17:23;10.10;99.90
38241;DHT22;24037;49.536;8.500;2023-04-12T09:19:49;10.10;99.90
38241;DHT22;24037;49.536;8.500;2023-04-12T09:22:16;10.20;99.90
38241;DHT22;24037;49.536;8.500;2023-04-12T09:24:47;10.30;99.90
38241;DHT22;24037;49.536;8.500;2023-04-12T09:27:15;10.30;99.90
38241;DHT22;24037;49.536;8.500;2023-04-12T09:29:41;10.40;99.90
38241;DHT22;24037;49.536;8.500;2023-04-12T09:32:10;10.40;69.70
38241;DHT22;24037;49.536;8.500;2023-04-12T09:34:36;10.40;70.80
38241;DHT22;24037;49.536;8.500;2023-04-12T09:37:14;10.50;86.30
38241;DHT22;24037;49.536;8.500;2023-04-12T09:39:41;10.60;78.40
38241;DHT22;24037;49.536;8.500;2023-04-12T09:42:09;10.70;77.40
38241;DHT22;24037;49.536;8.500;2023-04-12T09:44:36;10.80;49.90
38241;DHT22;24037;49.536;8.500;2023-04-12T09:47:03;10.80;26.20
38241;DHT22;24037;49.536;8.500;2023-04-12T09:49:37;10.80;25.80
38241;DHT22;24037;49.536;8.500;2023-04-12T09:52:06;10.90;29.00
38241;DHT22;24037;49.536;8.500;2023-04-12T09:54:46;10.90;19.90
38241;DHT22;24037;49.536;8.500;2023-04-12T09:57:20;11.00;22.30
38241;DHT22;24037;49.536;8.500;2023-04-12T09:59:48;11.00;18.90
38241;DHT22;24037;49.536;8.500;2023-04-12T10:02:21;11.10;19.30
38241;DHT22;24037;49.536;8.500;2023-04-12T10:04:48;11.00;7.50
38241;DHT22;24037;49.536;8.500;2023-04-12T10:07:14;11.10;6.50
38241;DHT22;24037;49.536;8.500;2023-04-12T10:09:41;11.00;7.90
38241;DHT22;24037;49.536;8.500;2023-04-12T10:12:08;11.00;8.10
38241;DHT22;24037;49.536;8.500;2023-04-12T10:14:34;11.00;21.30
38241;DHT22;24037;49.536;8.500;2023-04-12T10:17:02;11.00;25.50
38241;DHT22;24037;49.536;8.500;2023-04-12T10:19:30;11.10;20.40
38241;DHT22;24037;49.536;8.500;2023-04-12T10:21:59;11.10;12.90
38241;DHT22;24037;49.536;8.500;2023-04-12T10:24:27;11.10;1.80
38241;DHT22;24037;49.536;8.500;2023-04-12T10:26:54;11.10;1.60
38241;DHT22;24037;49.536;8.500;2023-04-12T10:29:28;11.10;5.90
38241;DHT22;24037;49.536;8.500;2023-04-12T10:31:56;11.20;2.90
38241;DHT22;24037;49.536;8.500;2023-04-12T10:34:27;11.40;17.60
38241;DHT22;24037;49.536;8.500;2023-04-12T10:36:58;11.40;7.30
38241;DHT22;24037;49.536;8.500;2023-04-12T10:39:41;11.40;10.90
38241;DHT22;24037;49.536;8.500;2023-04-12T10:42:22;11.40;2.70
38241;DHT22;24037;49.536;8.500;2023-04-12T10:50:23;11.70;1.00
38241;DHT22;24037;49.536;8.500;2023-04-12T10:55:38;11.80;1.00
38241;DHT22;24037;49.536;8.500;2023-04-12T10:58:04;11.80;1.00
38241;DHT22;24037;49.536;8.500;2023-04-12T11:03:21;11.70;1.00
38241;DHT22;24037;49.536;8.500;2023-04-12T11:06:02;11.70;1.00
38241;DHT22;24037;49.536;8.500;2023-04-12T11:08:47;11.80;1.00
38241;DHT22;24037;49.536;8.500;2023-04-12T11:11:24;11.70;1.00
38241;DHT22;24037;49.536;8.500;2023-04-12T11:13:55;11.60;1.00
38241;DHT22;24037;49.536;8.500;2023-04-12T11:16:24;11.70;1.00
38241;DHT22;24037;49.536;8.500;2023-04-12T11:18:50;11.80;1.00
38241;DHT22;24037;49.536;8.500;2023-04-12T11:21:19;11.80;1.00
38241;DHT22;24037;49.536;8.500;2023-04-12T11:23:45;11.80;1.00
38241;DHT22;24037;49.536;8.500;2023-04-12T11:26:18;11.80;1.00
38241;DHT22;24037;49.536;8.500;2023-04-12T11:28:45;11.90;1.00
38241;DHT22;24037;49.536;8.500;2023-04-12T11:31:13;12.00;1.00
38241;DHT22;24037;49.536;8.500;2023-04-12T11:33:40;12.00;1.00
38241;DHT22;24037;49.536;8.500;2023-04-12T11:36:09;12.00;1.00
38241;DHT22;24037;49.536;8.500;2023-04-12T11:38:39;12.10;1.00
38241;DHT22;24037;49.536;8.500;2023-04-12T11:41:07;12.10;1.00
38241;DHT22;24037;49.536;8.500;2023-04-12T11:43:35;12.20;1.00
38241;DHT22;24037;49.536;8.500;2023-04-12T11:46:03;12.30;1.00
38241;DHT22;24037;49.536;8.500;2023-04-12T11:48:30;12.40;1.00
38241;DHT22;24037;49.536;8.500;2023-04-12T11:50:57;12.30;1.00
38241;DHT22;24037;49.536;8.500;2023-04-12T11:53:27;12.20;1.00
38241;DHT22;24037;49.536;8.500;2023-04-12T11:55:55;12.30;1.00
38241;DHT22;24037;49.536;8.500;2023-04-12T11:58:25;12.30;1.00
38241;DHT22;24037;49.536;8.500;2023-04-12T12:00:52;12.50;1.00
38241;DHT22;24037;49.536;8.500;2023-04-12T12:03:19;12.60;1.00
38241;DHT22;24037;49.536;8.500;2023-04-12T12:05:46;12.60;1.00
38241;DHT22;24037;49.536;8.500;2023-04-12T12:08:15;12.60;1.00
38241;DHT22;24037;49.536;8.500;2023-04-12T12:10:42;12.60;1.00
38241;DHT22;24037;49.536;8.500;2023-04-12T12:13:09;12.50;1.00
38241;DHT22;24037;49.536;8.500;2023-04-12T12:15:36;12.60;1.00
38241;DHT22;24037;49.536;8.500;2023-04-12T12:18:05;12.70;1.00
38241;DHT22;24037;49.536;8.500;2023-04-12T12:20:38;12.90;1.00
38241;DHT22;24037;49.536;8.500;2023-04-12T12:23:04;13.10;1.00
38241;DHT22;24037;49.536;8.500;2023-04-12T12:25:31;12.90;1.00
38241;DHT22;24037;49.536;8.500;2023-04-12T12:27:57;12.70;1.00
38241;DHT22;24037;49.536;8.500;2023-04-12T12:30:24;12.60;1.00
38241;DHT22;24037;49.536;8.500;2023-04-12T12:32:50;12.60;1.00
38241;DHT22;24037;49.536;8.500;2023-04-12T12:35:17;12.70;1.00
38241;DHT22;24037;49.536;8.500;2023-04-12T12:37:49;12.90;1.00
38241;DHT22;24037;49.536;8.500;2023-04-12T12:40:15;13.00;1.00
38241;DHT22;24037;49.536;8.500;2023-04-12T12:42:50;13.00;1.00
38241;DHT22;24037;49.536;8.500;2023-04-12T12:45:18;12.90;1.00
38241;DHT22;24037;49.536;8.500;2023-04-12T12:47:49;12.90;1.00
38241;DHT22;24037;49.536;8.500;2023-04-12T12:50:22;12.90;1.00
38241;DHT22;24037;49.536;8.500;2023-04-12T12:52:49;12.80;1.00
38241;DHT22;24037;49.536;8.500;2023-04-12T12:55:17;12.50;1.00
38241;DHT22;24037;49.536;8.500;2023-04-12T12:57:44;12.30;1.00
38241;DHT22;24037;49.536;8.500;2023-04-12T13:00:11;12.20;1.00
38241;DHT22;24037;49.536;8.500;2023-04-12T13:02:42;12.20;1.00
38241;DHT22;24037;49.536;8.500;2023-04-12T13:05:09;12.30;1.00
38241;DHT22;24037;49.536;8.500;2023-04-12T13:07:36;12.20;1.00
38241;DHT22;24037;49.536;8.500;2023-04-12T13:10:03;12.20;1.00
38241;DHT22;24037;49.536;8.500;2023-04-12T13:12:30;12.10;1.00
38241;DHT22;24037;49.536;8.500;2023-04-12T13:14:56;12.10;1.00
38241;DHT22;24037;49.536;8.500;2023-04-12T13:17:23;12.30;1.00
38241;DHT22;24037;49.536;8.500;2023-04-12T13:19:49;12.40;1.00
38241;DHT22;24037;49.536;8.500;2023-04-12T13:22:16;12.40;1.00
38241;DHT22;24037;49.536;8.500;2023-04-12T13:24:42;12.40;1.00
38241;DHT22;24037;49.536;8.500;2023-04-12T13:27:09;12.30;1.00
38241;DHT22;24037;49.536;8.500;2023-04-12T13:29:36;12.30;1.00
38241;DHT22;24037;49.536;8.500;2023-04-12T13:32:02;12.30;1.00
38241;DHT22;24037;49.536;8.500;2023-04-12T13:34:29;12.30;1.00
38241;DHT22;24037;49.536;8.500;2023-04-12T13:36:56;12.40;1.00
38241;DHT22;24037;49.536;8.500;2023-04-12T13:39:22;12.40;1.00
38241;DHT22;24037;49.536;8.500;2023-04-12T13:41:49;12.40;1.00
38241;DHT22;24037;49.536;8.500;2023-04-12T13:44:15;12.40;1.00
38241;DHT22;24037;49.536;8.500;2023-04-12T13:46:41;12.30;1.00
38241;DHT22;24037;49.536;8.500;2023-04-12T13:49:08;12.20;1.00
38241;DHT22;24037;49.536;8.500;2023-04-12T13:51:34;12.40;1.00
38241;DHT22;24037;49.536;8.500;2023-04-12T13:54:00;12.70;1.00
38241;DHT22;24037;49.536;8.500;2023-04-12T13:56:26;12.90;1.00
38241;DHT22;24037;49.536;8.500;2023-04-12T13:58:53;12.90;1.00
38241;DHT22;24037;49.536;8.500;2023-04-12T14:01:19;12.90;1.00
38241;DHT22;24037;49.536;8.500;2023-04-12T14:03:48;12.90;1.00
38241;DHT22;24037;49.536;8.500;2023-04-12T14:06:14;13.00;1.00
38241;DHT22;24037;49.536;8.500;2023-04-12T14:08:40;12.90;1.00
38241;DHT22;24037;49.536;8.500;2023-04-12T14:11:06;12.90;1.00
38241;DHT22;24037;49.536;8.500;2023-04-12T14:13:32;12.80;1.00
38241;DHT22;24037;49.536;8.500;2023-04-12T14:15:58;12.80;1.00
38241;DHT22;24037;49.536;8.500;2023-04-12T14:18:25;12.80;1.00
38241;DHT22;24037;49.536;8.500;2023-04-12T14:20:51;12.80;1.00
38241;DHT22;24037;49.536;8.500;2023-04-12T14:23:17;12.70;1.00
38241;DHT22;24037;49.536;8.500;2023-04-12T14:25:44;12.70;1.00
38241;DHT22;24037;49.536;8.500;2023-04-12T14:28:10;12.70;1.00
38241;DHT22;24037;49.536;8.500;2023-04-12T14:30:44;12.70;1.00
38241;DHT22;24037;49.536;8.500;2023-04-12T14:33:10;12.70;1.00
38241;DHT22;24037;49.536;8.500;2023-04-12T14:35:37;12.60;1.00
38241;DHT22;24037;49.536;8.500;2023-04-12T14:38:03;12.50;1.00
38241;DHT22;24037;49.536;8.500;2023-04-12T14:40:31;12.60;99.90
38241;DHT22;24037;49.536;8.500;2023-04-12T14:42:57;12.60;99.90
38241;DHT22;24037;49.536;8.500;2023-04-12T14:45:23;12.60;99.90
38241;DHT22;24037;49.536;8.500;2023-04-12T14:47:49;12.60;1.00
38241;DHT22;24037;49.536;8.500;2023-04-12T14:50:15;12.60;99.90
38241;DHT22;24037;49.536;8.500;2023-04-12T14:52:41;12.60;99.90
38241;DHT22;24037;49.536;8.500;2023-04-12T14:55:08;12.60;99.90
38241;DHT22;24037;49.536;8.500;2023-04-12T14:57:35;12.60;99.90
38241;DHT22;24037;49.536;8.500;2023-04-12T15:00:02;12.60;99.90
38241;DHT22;24037;49.536;8.500;2023-04-12T15:02:29;12.60;99.90
38241;DHT22;24037;49.536;8.500;2023-04-12T15:04:55;12.70;99.90
38241;DHT22;24037;49.536;8.500;2023-04-12T15:07:22;12.70;99.90
38241;DHT22;24037;49.536;8.500;2023-04-12T15:09:48;12.70;99.90
38241;DHT22;24037;49.536;8.500;2023-04-12T15:12:14;12.70;99.90
38241;DHT22;24037;49.536;8.500;2023-04-12T15:14:42;12.80;99.90
38241;DHT22;24037;49.536;8.500;2023-04-12T15:17:08;12.90;99.90
38241;DHT22;24037;49.536;8.500;2023-04-12T15:19:35;13.00;99.90
38241;DHT22;24037;49.536;8.500;2023-04-12T15:22:01;13.10;99.90
38241;DHT22;24037;49.536;8.500;2023-04-12T15:24:27;13.00;99.90
38241;DHT22;24037;49.536;8.500;2023-04-12T15:26:55;13.00;99.90
38241;DHT22;24037;49.536;8.500;2023-04-12T15:29:21;13.10;99.90
38241;DHT22;24037;49.536;8.500;2023-04-12T15:31:49;13.10;99.90
38241;DHT22;24037;49.536;8.500;2023-04-12T15:34:15;13.00;99.90
38241;DHT22;24037;49.536;8.500;2023-04-12T15:36:42;12.90;99.90
38241;DHT22;24037;49.536;8.500;2023-04-12T15:39:09;12.90;99.90
38241;DHT22;24037;49.536;8.500;2023-04-12T15:41:39;12.90;99.90
38241;DHT22;24037;49.536;8.500;2023-04-12T15:44:06;13.00;99.90
38241;DHT22;24037;49.536;8.500;2023-04-12T15:46:33;13.10;99.90
38241;DHT22;24037;49.536;8.500;2023-04-12T15:49:00;13.10;99.90
38241;DHT22;24037;49.536;8.500;2023-04-12T15:51:28;13.30;99.90
38241;DHT22;24037;49.536;8.500;2023-04-12T15:53:55;13.40;99.90
38241;DHT22;24037;49.536;8.500;2023-04-12T15:56:22;13.50;99.90
38241;DHT22;24037;49.536;8.500;2023-04-12T15:58:51;13.80;99.90
38241;DHT22;24037;49.536;8.500;2023-04-12T16:01:18;14.20;99.90
38241;DHT22;24037;49.536;8.500;2023-04-12T16:03:45;14.60;99.90
38241;DHT22;24037;49.536;8.500;2023-04-12T16:06:16;14.90;99.90
38241;DHT22;24037;49.536;8.500;2023-04-12T16:08:50;14.90;99.90
38241;DHT22;24037;49.536;8.500;2023-04-12T16:11:18;14.60;99.80
38241;DHT22;24037;49.536;8.500;2023-04-12T16:13:45;14.40;83.20